Etusivu
METAR-TAF:

METAR-TAF

Lentoasemat :

Skellefteån lentoasema

Skellefteå, Ruotsi

Leveyspiiri: 64-38N, Pituuspiiri: 021-05E, korkeus merenpinnasta: 49 m

Tämänhetkinen sää

Tämä raportti tehtiin 16 minuuttia sitten, kello 20.50 UTC
Tuuli 1 kn eri suunnista
Lämpötila 11°C
Kosteus 87%
Ilmanpaine 1002 hPa
Näkyvyys 10 km tai enemmän
heikkoa sadetta

METAR: ESNS 182050Z VRB01KT 9999 -RA NSC 11/09 Q1002

Aika: 23:06 (21:06 UTC)

Sääennuste

Tämä raportti tehtiin 3 tuntia ja 36 minuuttia sitten, kello 17.30 UTC
Ennuste voimassa 18. päivästä klo 18 UTC - 18. päivään klo 22 UTC
Tuuli 2 kn eri suunnista
Näkyvyys 10 km tai enemmän
ei pilviä alle 1500 m:ssä eikä cumulonimbus-pilviä
Todennäköisyys 40%
18. päivästä klo 20 UTC - 18. päivään klo 22 UTC
Hajonneita pilviä 1200 ft:n korkeudessa
sadetta

TAF: ESNS 181730Z 1818/1822 VRB02KT CAVOK PROB40 1820/1822 RA BKN012

Säähavainnot ja -ennusteet yli 4000 lentoasemalta (METAR- ja TAF-raportit).

Käytössä olevat sääasemat on merkitty karttaan keltaisilla ja punaisilla pisteillä.

Aseta hiiri pisteen päälle nähdäksesi sääaseman nimen.

Klikkaa sitten nähdäksesi säähavainnot ja -ennusteet.

Kartan vaihtaminen: klikkaa mustalla rastilla varustettuja vihreitä pisteitä, niin voit zoomata sisään; viivalla varustettua vihreää pistettä, niin voit zoomata ulos tai vihreitä nuolia, niin pääset viereisille kartoille.


METAR-TAF: